sensor_id;sensor_type;location;lat;lon;timestamp;P1;durP1;ratioP1;P2;durP2;ratioP2
37169;SDS011;23062;13.952;100.608;2022-07-03T00:01:44;11.00;;;8.00;;
37169;SDS011;23062;13.952;100.608;2022-07-03T00:06:34;11.00;;;8.00;;
37169;SDS011;23062;13.952;100.608;2022-07-03T00:11:24;11.00;;;8.00;;
37169;SDS011;23062;13.952;100.608;2022-07-03T00:16:15;11.00;;;8.00;;
37169;SDS011;23062;13.952;100.608;2022-07-03T00:21:07;11.00;;;8.00;;
37169;SDS011;23062;13.952;100.608;2022-07-03T00:25:57;14.00;;;10.00;;
37169;SDS011;23062;13.952;100.608;2022-07-03T00:30:48;12.00;;;8.00;;
37169;SDS011;23062;13.952;100.608;2022-07-03T00:35:38;10.00;;;7.00;;
37169;SDS011;23062;13.952;100.608;2022-07-03T00:40:30;15.00;;;11.00;;
37169;SDS011;23062;13.952;100.608;2022-07-03T00:45:20;14.00;;;10.00;;
37169;SDS011;23062;13.952;100.608;2022-07-03T00:50:11;14.00;;;10.00;;
37169;SDS011;23062;13.952;100.608;2022-07-03T00:55:01;11.00;;;8.00;;
37169;SDS011;23062;13.952;100.608;2022-07-03T00:59:53;11.00;;;7.47;;
37169;SDS011;23062;13.952;100.608;2022-07-03T01:15:05;12.00;;;9.00;;
37169;SDS011;23062;13.952;100.608;2022-07-03T01:20:07;13.00;;;9.00;;
37169;SDS011;23062;13.952;100.608;2022-07-03T01:25:03;12.00;;;9.00;;
37169;SDS011;23062;13.952;100.608;2022-07-03T01:30:06;12.00;;;8.00;;
37169;SDS011;23062;13.952;100.608;2022-07-03T01:34:57;12.00;;;8.00;;
37169;SDS011;23062;13.952;100.608;2022-07-03T01:39:51;7.00;;;5.00;;
37169;SDS011;23062;13.952;100.608;2022-07-03T01:44:41;8.00;;;6.00;;
37169;SDS011;23062;13.952;100.608;2022-07-03T01:49:33;8.00;;;6.00;;
37169;SDS011;23062;13.952;100.608;2022-07-03T01:54:25;7.00;;;5.00;;
37169;SDS011;23062;13.952;100.608;2022-07-03T01:59:16;7.00;;;5.00;;
37169;SDS011;23062;13.952;100.608;2022-07-03T02:09:14;6.00;;;4.00;;
37169;SDS011;23062;13.952;100.608;2022-07-03T02:14:25;6.00;;;4.00;;
37169;SDS011;23062;13.952;100.608;2022-07-03T02:19:17;5.00;;;3.00;;
37169;SDS011;23062;13.952;100.608;2022-07-03T02:24:15;28.00;;;22.00;;
37169;SDS011;23062;13.952;100.608;2022-07-03T02:29:03;18.00;;;13.00;;
37169;SDS011;23062;13.952;100.608;2022-07-03T02:33:55;9.00;;;6.00;;
37169;SDS011;23062;13.952;100.608;2022-07-03T02:38:46;8.00;;;5.00;;
37169;SDS011;23062;13.952;100.608;2022-07-03T02:48:40;4.00;;;2.00;;
37169;SDS011;23062;13.952;100.608;2022-07-03T02:53:33;4.00;;;2.00;;
37169;SDS011;23062;13.952;100.608;2022-07-03T03:03:54;4.00;;;2.00;;
37169;SDS011;23062;13.952;100.608;2022-07-03T03:13:39;4.00;;;3.00;;
37169;SDS011;23062;13.952;100.608;2022-07-03T03:18:30;2.00;;;0.93;;
37169;SDS011;23062;13.952;100.608;2022-07-03T03:28:43;3.00;;;2.00;;
37169;SDS011;23062;13.952;100.608;2022-07-03T03:33:41;3.00;;;1.00;;
37169;SDS011;23062;13.952;100.608;2022-07-03T03:38:32;3.00;;;2.00;;
37169;SDS011;23062;13.952;100.608;2022-07-03T03:43:23;2.00;;;1.00;;
37169;SDS011;23062;13.952;100.608;2022-07-03T03:48:13;2.00;;;0.93;;
37169;SDS011;23062;13.952;100.608;2022-07-03T03:53:03;4.00;;;3.00;;
37169;SDS011;23062;13.952;100.608;2022-07-03T03:57:54;3.00;;;2.00;;
37169;SDS011;23062;13.952;100.608;2022-07-03T04:02:44;4.00;;;2.00;;
37169;SDS011;23062;13.952;100.608;2022-07-03T04:07:34;4.00;;;2.00;;
37169;SDS011;23062;13.952;100.608;2022-07-03T04:12:25;0.00;;;0.00;;
37169;SDS011;23062;13.952;100.608;2022-07-03T04:17:15;4.00;;;3.00;;
37169;SDS011;23062;13.952;100.608;2022-07-03T04:22:04;3.00;;;2.00;;
37169;SDS011;23062;13.952;100.608;2022-07-03T04:26:56;4.00;;;2.00;;
37169;SDS011;23062;13.952;100.608;2022-07-03T04:31:46;5.00;;;3.00;;
37169;SDS011;23062;13.952;100.608;2022-07-03T04:36:36;4.00;;;2.00;;
37169;SDS011;23062;13.952;100.608;2022-07-03T04:41:26;4.00;;;2.00;;
37169;SDS011;23062;13.952;100.608;2022-07-03T04:46:17;2.00;;;1.00;;
37169;SDS011;23062;13.952;100.608;2022-07-03T04:51:08;4.00;;;2.00;;
37169;SDS011;23062;13.952;100.608;2022-07-03T04:55:58;4.00;;;3.00;;
37169;SDS011;23062;13.952;100.608;2022-07-03T05:00:48;5.00;;;3.00;;
37169;SDS011;23062;13.952;100.608;2022-07-03T05:05:39;3.00;;;2.00;;
37169;SDS011;23062;13.952;100.608;2022-07-03T05:10:29;5.00;;;3.00;;
37169;SDS011;23062;13.952;100.608;2022-07-03T05:15:19;3.00;;;2.00;;
37169;SDS011;23062;13.952;100.608;2022-07-03T05:20:10;5.00;;;3.00;;
37169;SDS011;23062;13.952;100.608;2022-07-03T05:25:17;3.00;;;2.00;;
37169;SDS011;23062;13.952;100.608;2022-07-03T05:30:09;2.00;;;1.00;;
37169;SDS011;23062;13.952;100.608;2022-07-03T05:35:00;5.00;;;3.00;;
37169;SDS011;23062;13.952;100.608;2022-07-03T05:39:50;5.00;;;3.00;;
37169;SDS011;23062;13.952;100.608;2022-07-03T05:44:39;4.00;;;2.00;;
37169;SDS011;23062;13.952;100.608;2022-07-03T05:49:31;3.00;;;2.00;;
37169;SDS011;23062;13.952;100.608;2022-07-03T05:54:21;3.00;;;1.00;;
37169;SDS011;23062;13.952;100.608;2022-07-03T05:59:11;3.00;;;2.00;;
37169;SDS011;23062;13.952;100.608;2022-07-03T06:04:01;2.00;;;1.00;;
37169;SDS011;23062;13.952;100.608;2022-07-03T06:08:51;3.00;;;2.00;;
37169;SDS011;23062;13.952;100.608;2022-07-03T06:13:41;2.00;;;1.00;;
37169;SDS011;23062;13.952;100.608;2022-07-03T06:18:31;2.00;;;1.00;;
37169;SDS011;23062;13.952;100.608;2022-07-03T06:23:21;5.00;;;3.00;;
37169;SDS011;23062;13.952;100.608;2022-07-03T06:28:11;6.00;;;4.00;;
37169;SDS011;23062;13.952;100.608;2022-07-03T06:33:01;5.00;;;3.00;;
37169;SDS011;23062;13.952;100.608;2022-07-03T06:37:51;3.00;;;2.00;;
37169;SDS011;23062;13.952;100.608;2022-07-03T06:42:42;3.00;;;2.00;;
37169;SDS011;23062;13.952;100.608;2022-07-03T06:47:36;4.00;;;2.00;;
37169;SDS011;23062;13.952;100.608;2022-07-03T06:52:29;4.00;;;2.00;;
37169;SDS011;23062;13.952;100.608;2022-07-03T06:57:19;2.00;;;1.00;;
37169;SDS011;23062;13.952;100.608;2022-07-03T07:02:09;2.00;;;1.00;;
37169;SDS011;23062;13.952;100.608;2022-07-03T07:06:59;2.00;;;1.00;;
37169;SDS011;23062;13.952;100.608;2022-07-03T07:11:49;2.00;;;1.00;;
37169;SDS011;23062;13.952;100.608;2022-07-03T07:16:40;2.00;;;1.00;;
37169;SDS011;23062;13.952;100.608;2022-07-03T07:21:30;2.00;;;1.00;;
37169;SDS011;23062;13.952;100.608;2022-07-03T07:26:20;4.00;;;2.00;;
37169;SDS011;23062;13.952;100.608;2022-07-03T07:31:10;4.00;;;2.00;;
37169;SDS011;23062;13.952;100.608;2022-07-03T07:36:00;5.00;;;3.00;;
37169;SDS011;23062;13.952;100.608;2022-07-03T07:40:49;4.00;;;3.00;;
37169;SDS011;23062;13.952;100.608;2022-07-03T07:45:40;7.00;;;5.00;;
37169;SDS011;23062;13.952;100.608;2022-07-03T07:50:30;5.00;;;3.00;;
37169;SDS011;23062;13.952;100.608;2022-07-03T07:55:20;3.00;;;2.00;;
37169;SDS011;23062;13.952;100.608;2022-07-03T08:00:12;4.00;;;2.00;;
37169;SDS011;23062;13.952;100.608;2022-07-03T08:05:04;4.00;;;2.00;;
37169;SDS011;23062;13.952;100.608;2022-07-03T08:10:19;4.00;;;3.00;;
37169;SDS011;23062;13.952;100.608;2022-07-03T08:15:10;4.00;;;2.00;;
37169;SDS011;23062;13.952;100.608;2022-07-03T08:20:00;4.00;;;2.00;;
37169;SDS011;23062;13.952;100.608;2022-07-03T08:24:50;3.00;;;2.00;;
37169;SDS011;23062;13.952;100.608;2022-07-03T08:29:40;4.00;;;3.00;;
37169;SDS011;23062;13.952;100.608;2022-07-03T08:34:30;5.00;;;3.00;;
37169;SDS011;23062;13.952;100.608;2022-07-03T08:39:20;3.00;;;2.00;;
37169;SDS011;23062;13.952;100.608;2022-07-03T08:44:11;4.00;;;3.00;;
37169;SDS011;23062;13.952;100.608;2022-07-03T08:49:03;5.00;;;3.00;;
37169;SDS011;23062;13.952;100.608;2022-07-03T08:53:54;5.00;;;2.80;;
37169;SDS011;23062;13.952;100.608;2022-07-03T08:58:45;5.00;;;3.00;;
37169;SDS011;23062;13.952;100.608;2022-07-03T09:03:34;4.00;;;2.00;;
37169;SDS011;23062;13.952;100.608;2022-07-03T09:08:26;3.00;;;2.00;;
37169;SDS011;23062;13.952;100.608;2022-07-03T09:13:19;4.00;;;2.00;;
37169;SDS011;23062;13.952;100.608;2022-07-03T09:18:09;3.00;;;2.00;;
37169;SDS011;23062;13.952;100.608;2022-07-03T09:23:08;4.00;;;2.00;;
37169;SDS011;23062;13.952;100.608;2022-07-03T09:28:00;4.00;;;3.00;;
37169;SDS011;23062;13.952;100.608;2022-07-03T09:32:50;5.00;;;3.00;;
37169;SDS011;23062;13.952;100.608;2022-07-03T09:37:40;4.00;;;3.00;;
37169;SDS011;23062;13.952;100.608;2022-07-03T09:42:31;5.00;;;3.00;;
37169;SDS011;23062;13.952;100.608;2022-07-03T09:47:24;4.00;;;3.00;;
37169;SDS011;23062;13.952;100.608;2022-07-03T09:57:21;6.00;;;4.00;;
37169;SDS011;23062;13.952;100.608;2022-07-03T10:02:13;4.00;;;3.00;;
37169;SDS011;23062;13.952;100.608;2022-07-03T10:07:05;5.00;;;4.00;;
37169;SDS011;23062;13.952;100.608;2022-07-03T10:11:55;5.00;;;3.00;;
37169;SDS011;23062;13.952;100.608;2022-07-03T10:16:46;6.00;;;4.00;;
37169;SDS011;23062;13.952;100.608;2022-07-03T10:21:37;7.00;;;4.00;;
37169;SDS011;23062;13.952;100.608;2022-07-03T10:26:28;6.00;;;4.00;;
37169;SDS011;23062;13.952;100.608;2022-07-03T10:31:19;6.00;;;4.00;;
37169;SDS011;23062;13.952;100.608;2022-07-03T10:36:11;6.00;;;4.00;;
37169;SDS011;23062;13.952;100.608;2022-07-03T10:41:10;6.00;;;4.00;;
37169;SDS011;23062;13.952;100.608;2022-07-03T10:46:23;6.00;;;4.00;;
37169;SDS011;23062;13.952;100.608;2022-07-03T10:51:14;5.00;;;3.00;;
37169;SDS011;23062;13.952;100.608;2022-07-03T10:56:04;7.00;;;5.00;;
37169;SDS011;23062;13.952;100.608;2022-07-03T11:00:56;3.00;;;2.00;;
37169;SDS011;23062;13.952;100.608;2022-07-03T11:05:46;6.00;;;4.00;;
37169;SDS011;23062;13.952;100.608;2022-07-03T11:10:36;5.00;;;3.00;;
37169;SDS011;23062;13.952;100.608;2022-07-03T11:15:31;6.00;;;4.00;;
37169;SDS011;23062;13.952;100.608;2022-07-03T11:20:25;6.00;;;4.00;;
37169;SDS011;23062;13.952;100.608;2022-07-03T11:25:15;3.00;;;2.00;;
37169;SDS011;23062;13.952;100.608;2022-07-03T11:30:07;6.00;;;4.00;;
37169;SDS011;23062;13.952;100.608;2022-07-03T11:34:58;5.00;;;3.00;;
37169;SDS011;23062;13.952;100.608;2022-07-03T11:39:48;9.00;;;6.00;;
37169;SDS011;23062;13.952;100.608;2022-07-03T11:44:40;7.00;;;5.00;;
37169;SDS011;23062;13.952;100.608;2022-07-03T11:49:31;9.00;;;6.00;;
37169;SDS011;23062;13.952;100.608;2022-07-03T11:54:21;8.00;;;5.00;;
37169;SDS011;23062;13.952;100.608;2022-07-03T11:59:11;9.00;;;6.00;;
37169;SDS011;23062;13.952;100.608;2022-07-03T12:04:05;6.00;;;4.00;;
37169;SDS011;23062;13.952;100.608;2022-07-03T12:09:02;7.00;;;5.00;;
37169;SDS011;23062;13.952;100.608;2022-07-03T12:13:53;6.00;;;4.00;;
37169;SDS011;23062;13.952;100.608;2022-07-03T12:18:44;5.00;;;4.00;;
37169;SDS011;23062;13.952;100.608;2022-07-03T12:23:45;6.00;;;4.00;;
37169;SDS011;23062;13.952;100.608;2022-07-03T12:28:37;5.00;;;3.00;;
37169;SDS011;23062;13.952;100.608;2022-07-03T12:33:27;6.00;;;4.00;;
37169;SDS011;23062;13.952;100.608;2022-07-03T12:38:30;5.00;;;4.00;;
37169;SDS011;23062;13.952;100.608;2022-07-03T12:43:20;5.00;;;3.00;;
37169;SDS011;23062;13.952;100.608;2022-07-03T12:48:10;4.00;;;2.00;;
37169;SDS011;23062;13.952;100.608;2022-07-03T12:53:01;3.00;;;2.00;;
37169;SDS011;23062;13.952;100.608;2022-07-03T12:58:09;3.00;;;2.00;;
37169;SDS011;23062;13.952;100.608;2022-07-03T13:03:29;4.00;;;3.00;;
37169;SDS011;23062;13.952;100.608;2022-07-03T13:08:23;4.00;;;2.00;;
37169;SDS011;23062;13.952;100.608;2022-07-03T13:13:13;3.00;;;2.00;;
37169;SDS011;23062;13.952;100.608;2022-07-03T13:18:03;3.00;;;2.00;;
37169;SDS011;23062;13.952;100.608;2022-07-03T13:22:54;2.00;;;1.00;;
37169;SDS011;23062;13.952;100.608;2022-07-03T13:27:45;3.00;;;2.00;;
37169;SDS011;23062;13.952;100.608;2022-07-03T13:32:36;3.00;;;2.00;;
37169;SDS011;23062;13.952;100.608;2022-07-03T13:37:29;2.00;;;1.00;;
37169;SDS011;23062;13.952;100.608;2022-07-03T13:42:19;3.00;;;2.00;;
37169;SDS011;23062;13.952;100.608;2022-07-03T13:47:09;3.00;;;2.00;;
37169;SDS011;23062;13.952;100.608;2022-07-03T13:51:59;3.00;;;2.00;;
37169;SDS011;23062;13.952;100.608;2022-07-03T13:56:49;4.00;;;3.00;;
37169;SDS011;23062;13.952;100.608;2022-07-03T14:01:38;2.00;;;1.00;;
37169;SDS011;23062;13.952;100.608;2022-07-03T14:06:28;5.00;;;3.00;;
37169;SDS011;23062;13.952;100.608;2022-07-03T14:11:19;2.00;;;1.00;;
37169;SDS011;23062;13.952;100.608;2022-07-03T14:16:09;3.00;;;2.00;;
37169;SDS011;23062;13.952;100.608;2022-07-03T14:21:00;2.00;;;1.00;;
37169;SDS011;23062;13.952;100.608;2022-07-03T14:25:51;2.00;;;1.00;;
37169;SDS011;23062;13.952;100.608;2022-07-03T14:30:42;2.00;;;1.00;;
37169;SDS011;23062;13.952;100.608;2022-07-03T14:35:57;4.00;;;2.00;;
37169;SDS011;23062;13.952;100.608;2022-07-03T14:40:48;2.00;;;1.00;;
37169;SDS011;23062;13.952;100.608;2022-07-03T14:45:38;3.00;;;2.00;;
37169;SDS011;23062;13.952;100.608;2022-07-03T14:50:28;2.00;;;1.00;;
37169;SDS011;23062;13.952;100.608;2022-07-03T14:55:18;4.00;;;2.00;;
37169;SDS011;23062;13.952;100.608;2022-07-03T15:00:11;2.00;;;1.00;;
37169;SDS011;23062;13.952;100.608;2022-07-03T15:05:10;4.00;;;2.00;;
37169;SDS011;23062;13.952;100.608;2022-07-03T15:10:02;2.00;;;1.00;;
37169;SDS011;23062;13.952;100.608;2022-07-03T15:14:54;3.00;;;2.00;;
37169;SDS011;23062;13.952;100.608;2022-07-03T15:19:46;2.00;;;1.00;;
37169;SDS011;23062;13.952;100.608;2022-07-03T15:24:42;4.00;;;3.00;;
37169;SDS011;23062;13.952;100.608;2022-07-03T15:29:32;2.00;;;1.00;;
37169;SDS011;23062;13.952;100.608;2022-07-03T15:34:25;4.00;;;2.00;;
37169;SDS011;23062;13.952;100.608;2022-07-03T15:39:17;3.00;;;2.00;;
37169;SDS011;23062;13.952;100.608;2022-07-03T15:44:33;5.00;;;3.00;;
37169;SDS011;23062;13.952;100.608;2022-07-03T15:49:30;3.00;;;2.00;;
37169;SDS011;23062;13.952;100.608;2022-07-03T15:54:23;3.00;;;2.00;;
37169;SDS011;23062;13.952;100.608;2022-07-03T15:59:25;4.00;;;2.00;;
37169;SDS011;23062;13.952;100.608;2022-07-03T16:09:19;4.00;;;2.00;;
37169;SDS011;23062;13.952;100.608;2022-07-03T16:14:09;7.00;;;5.00;;
37169;SDS011;23062;13.952;100.608;2022-07-03T16:19:04;6.00;;;4.00;;
37169;SDS011;23062;13.952;100.608;2022-07-03T16:23:55;3.00;;;2.00;;
37169;SDS011;23062;13.952;100.608;2022-07-03T16:28:46;5.00;;;3.00;;
37169;SDS011;23062;13.952;100.608;2022-07-03T16:33:41;5.00;;;3.00;;
37169;SDS011;23062;13.952;100.608;2022-07-03T16:38:38;4.00;;;2.00;;
37169;SDS011;23062;13.952;100.608;2022-07-03T16:43:34;3.00;;;1.87;;
37169;SDS011;23062;13.952;100.608;2022-07-03T16:48:25;5.00;;;3.00;;
37169;SDS011;23062;13.952;100.608;2022-07-03T16:53:20;4.00;;;2.00;;
37169;SDS011;23062;13.952;100.608;2022-07-03T16:58:11;6.00;;;4.00;;
37169;SDS011;23062;13.952;100.608;2022-07-03T17:03:02;5.00;;;3.00;;
37169;SDS011;23062;13.952;100.608;2022-07-03T17:07:54;3.00;;;2.00;;
37169;SDS011;23062;13.952;100.608;2022-07-03T17:12:45;5.00;;;3.00;;
37169;SDS011;23062;13.952;100.608;2022-07-03T17:17:38;4.00;;;3.00;;
37169;SDS011;23062;13.952;100.608;2022-07-03T17:22:35;5.00;;;4.00;;
37169;SDS011;23062;13.952;100.608;2022-07-03T17:27:27;5.00;;;3.00;;
37169;SDS011;23062;13.952;100.608;2022-07-03T17:32:19;5.00;;;3.00;;
37169;SDS011;23062;13.952;100.608;2022-07-03T17:37:11;5.00;;;3.00;;
37169;SDS011;23062;13.952;100.608;2022-07-03T17:42:02;4.00;;;2.00;;
37169;SDS011;23062;13.952;100.608;2022-07-03T17:46:53;4.00;;;2.00;;
37169;SDS011;23062;13.952;100.608;2022-07-03T17:51:47;6.00;;;4.00;;
37169;SDS011;23062;13.952;100.608;2022-07-03T17:56:37;5.00;;;3.00;;
37169;SDS011;23062;13.952;100.608;2022-07-03T18:01:28;3.00;;;2.00;;
37169;SDS011;23062;13.952;100.608;2022-07-03T18:06:19;3.00;;;2.00;;
37169;SDS011;23062;13.952;100.608;2022-07-03T18:16:14;4.00;;;2.00;;
37169;SDS011;23062;13.952;100.608;2022-07-03T18:21:05;5.00;;;3.00;;
37169;SDS011;23062;13.952;100.608;2022-07-03T18:25:56;3.00;;;2.00;;
37169;SDS011;23062;13.952;100.608;2022-07-03T18:30:48;4.00;;;3.00;;
37169;SDS011;23062;13.952;100.608;2022-07-03T18:35:40;3.00;;;2.00;;
37169;SDS011;23062;13.952;100.608;2022-07-03T18:40:31;5.00;;;3.00;;
37169;SDS011;23062;13.952;100.608;2022-07-03T18:45:23;6.00;;;4.00;;
37169;SDS011;23062;13.952;100.608;2022-07-03T18:50:13;5.00;;;3.00;;
37169;SDS011;23062;13.952;100.608;2022-07-03T18:55:20;4.00;;;3.00;;
37169;SDS011;23062;13.952;100.608;2022-07-03T19:00:16;4.00;;;2.00;;
37169;SDS011;23062;13.952;100.608;2022-07-03T19:05:09;3.00;;;2.00;;
37169;SDS011;23062;13.952;100.608;2022-07-03T19:14:54;6.00;;;4.00;;
37169;SDS011;23062;13.952;100.608;2022-07-03T19:19:46;5.00;;;3.00;;
37169;SDS011;23062;13.952;100.608;2022-07-03T19:24:36;3.00;;;1.87;;
37169;SDS011;23062;13.952;100.608;2022-07-03T19:29:26;5.00;;;3.00;;
37169;SDS011;23062;13.952;100.608;2022-07-03T19:34:18;6.00;;;4.00;;
37169;SDS011;23062;13.952;100.608;2022-07-03T19:39:08;4.00;;;2.00;;
37169;SDS011;23062;13.952;100.608;2022-07-03T19:43:58;3.00;;;2.00;;
37169;SDS011;23062;13.952;100.608;2022-07-03T19:48:49;5.00;;;3.00;;
37169;SDS011;23062;13.952;100.608;2022-07-03T19:53:39;3.00;;;2.00;;
37169;SDS011;23062;13.952;100.608;2022-07-03T19:58:29;3.00;;;2.00;;
37169;SDS011;23062;13.952;100.608;2022-07-03T20:03:19;6.00;;;4.00;;
37169;SDS011;23062;13.952;100.608;2022-07-03T20:08:09;4.00;;;3.00;;
37169;SDS011;23062;13.952;100.608;2022-07-03T20:12:59;4.00;;;2.00;;
37169;SDS011;23062;13.952;100.608;2022-07-03T20:17:49;3.00;;;2.00;;
37169;SDS011;23062;13.952;100.608;2022-07-03T20:22:39;4.00;;;2.00;;
37169;SDS011;23062;13.952;100.608;2022-07-03T20:27:29;7.00;;;5.00;;
37169;SDS011;23062;13.952;100.608;2022-07-03T20:32:19;4.00;;;2.00;;
37169;SDS011;23062;13.952;100.608;2022-07-03T20:37:10;4.00;;;2.00;;
37169;SDS011;23062;13.952;100.608;2022-07-03T20:42:01;4.00;;;2.00;;
37169;SDS011;23062;13.952;100.608;2022-07-03T20:46:53;7.00;;;5.00;;
37169;SDS011;23062;13.952;100.608;2022-07-03T20:51:43;5.00;;;3.00;;
37169;SDS011;23062;13.952;100.608;2022-07-03T20:56:33;6.00;;;4.00;;
37169;SDS011;23062;13.952;100.608;2022-07-03T21:01:22;5.00;;;3.00;;
37169;SDS011;23062;13.952;100.608;2022-07-03T21:06:12;5.00;;;3.00;;
37169;SDS011;23062;13.952;100.608;2022-07-03T21:11:08;5.00;;;3.00;;
37169;SDS011;23062;13.952;100.608;2022-07-03T21:16:23;6.00;;;4.00;;
37169;SDS011;23062;13.952;100.608;2022-07-03T21:21:14;5.00;;;3.00;;
37169;SDS011;23062;13.952;100.608;2022-07-03T21:26:04;6.00;;;4.00;;
37169;SDS011;23062;13.952;100.608;2022-07-03T21:30:56;7.00;;;5.00;;
37169;SDS011;23062;13.952;100.608;2022-07-03T21:35:46;6.00;;;4.00;;
37169;SDS011;23062;13.952;100.608;2022-07-03T21:40:36;6.00;;;4.00;;
37169;SDS011;23062;13.952;100.608;2022-07-03T21:45:26;5.00;;;3.00;;
37169;SDS011;23062;13.952;100.608;2022-07-03T21:50:17;6.00;;;4.00;;
37169;SDS011;23062;13.952;100.608;2022-07-03T21:55:07;3.00;;;1.87;;
37169;SDS011;23062;13.952;100.608;2022-07-03T21:59:57;12.00;;;8.40;;
37169;SDS011;23062;13.952;100.608;2022-07-03T22:04:47;22.00;;;16.00;;
37169;SDS011;23062;13.952;100.608;2022-07-03T22:09:37;20.00;;;14.00;;
37169;SDS011;23062;13.952;100.608;2022-07-03T22:14:32;14.00;;;10.00;;
37169;SDS011;23062;13.952;100.608;2022-07-03T22:19:22;14.00;;;11.00;;
37169;SDS011;23062;13.952;100.608;2022-07-03T22:24:12;18.00;;;13.00;;
37169;SDS011;23062;13.952;100.608;2022-07-03T22:29:03;19.00;;;15.00;;
37169;SDS011;23062;13.952;100.608;2022-07-03T22:33:53;17.00;;;13.00;;
37169;SDS011;23062;13.952;100.608;2022-07-03T22:38:43;18.00;;;14.00;;
37169;SDS011;23062;13.952;100.608;2022-07-03T22:43:34;16.00;;;12.00;;
37169;SDS011;23062;13.952;100.608;2022-07-03T22:48:24;12.00;;;8.00;;
37169;SDS011;23062;13.952;100.608;2022-07-03T22:53:14;10.00;;;7.00;;
37169;SDS011;23062;13.952;100.608;2022-07-03T22:58:05;8.00;;;6.00;;
37169;SDS011;23062;13.952;100.608;2022-07-03T23:02:55;9.00;;;6.00;;
37169;SDS011;23062;13.952;100.608;2022-07-03T23:07:45;9.00;;;7.00;;
37169;SDS011;23062;13.952;100.608;2022-07-03T23:12:35;10.00;;;7.00;;
37169;SDS011;23062;13.952;100.608;2022-07-03T23:17:25;10.00;;;7.00;;
37169;SDS011;23062;13.952;100.608;2022-07-03T23:22:15;8.00;;;6.00;;
37169;SDS011;23062;13.952;100.608;2022-07-03T23:27:06;8.00;;;6.00;;
37169;SDS011;23062;13.952;100.608;2022-07-03T23:31:56;9.00;;;6.00;;
37169;SDS011;23062;13.952;100.608;2022-07-03T23:36:47;9.00;;;6.00;;
37169;SDS011;23062;13.952;100.608;2022-07-03T23:41:37;8.00;;;5.00;;
37169;SDS011;23062;13.952;100.608;2022-07-03T23:46:27;7.00;;;5.00;;
37169;SDS011;23062;13.952;100.608;2022-07-03T23:51:17;9.00;;;6.00;;
37169;SDS011;23062;13.952;100.608;2022-07-03T23:56:07;5.00;;;3.00;;
